sensor_id;sensor_type;location;lat;lon;timestamp;P1;durP1;ratioP1;P2;durP2;ratioP2
49942;SDS011;36011;53.362;58.948;2022-11-14T00:00:12;0.10;;;0.10;;
49942;SDS011;36011;53.362;58.948;2022-11-14T00:03:15;0.10;;;0.10;;
49942;SDS011;36011;53.362;58.948;2022-11-14T00:06:16;0.52;;;0.30;;
49942;SDS011;36011;53.362;58.948;2022-11-14T00:09:17;0.20;;;0.20;;
49942;SDS011;36011;53.362;58.948;2022-11-14T00:12:21;0.20;;;0.20;;
49942;SDS011;36011;53.362;58.948;2022-11-14T00:15:28;0.20;;;0.20;;
49942;SDS011;36011;53.362;58.948;2022-11-14T00:18:32;0.20;;;0.20;;
49942;SDS011;36011;53.362;58.948;2022-11-14T00:21:36;0.30;;;0.30;;
49942;SDS011;36011;53.362;58.948;2022-11-14T00:24:37;0.10;;;0.10;;
49942;SDS011;36011;53.362;58.948;2022-11-14T00:27:47;0.10;;;0.10;;
49942;SDS011;36011;53.362;58.948;2022-11-14T00:30:48;0.10;;;0.10;;
49942;SDS011;36011;53.362;58.948;2022-11-14T00:33:51;0.20;;;0.20;;
49942;SDS011;36011;53.362;58.948;2022-11-14T00:36:55;0.22;;;0.20;;
49942;SDS011;36011;53.362;58.948;2022-11-14T00:39:59;0.57;;;0.20;;
49942;SDS011;36011;53.362;58.948;2022-11-14T00:43:00;0.40;;;0.40;;
49942;SDS011;36011;53.362;58.948;2022-11-14T00:46:04;1.52;;;0.85;;
49942;SDS011;36011;53.362;58.948;2022-11-14T00:49:05;1.95;;;1.13;;
49942;SDS011;36011;53.362;58.948;2022-11-14T00:52:09;1.75;;;0.98;;
49942;SDS011;36011;53.362;58.948;2022-11-14T00:55:11;1.05;;;0.50;;
49942;SDS011;36011;53.362;58.948;2022-11-14T00:58:13;1.10;;;0.60;;
49942;SDS011;36011;53.362;58.948;2022-11-14T01:01:15;1.50;;;0.88;;
49942;SDS011;36011;53.362;58.948;2022-11-14T01:07:22;1.33;;;0.95;;
49942;SDS011;36011;53.362;58.948;2022-11-14T01:10:27;1.13;;;0.60;;
49942;SDS011;36011;53.362;58.948;2022-11-14T01:13:32;0.90;;;0.47;;
49942;SDS011;36011;53.362;58.948;2022-11-14T01:16:41;0.57;;;0.57;;
49942;SDS011;36011;53.362;58.948;2022-11-14T01:19:48;0.60;;;0.60;;
49942;SDS011;36011;53.362;58.948;2022-11-14T01:22:54;0.50;;;0.50;;
49942;SDS011;36011;53.362;58.948;2022-11-14T01:26:04;1.00;;;0.60;;
49942;SDS011;36011;53.362;58.948;2022-11-14T01:29:10;1.55;;;1.00;;
49942;SDS011;36011;53.362;58.948;2022-11-14T01:32:11;1.15;;;0.68;;
49942;SDS011;36011;53.362;58.948;2022-11-14T01:35:15;0.40;;;0.40;;
49942;SDS011;36011;53.362;58.948;2022-11-14T01:38:19;0.47;;;0.47;;
49942;SDS011;36011;53.362;58.948;2022-11-14T01:41:25;0.73;;;0.73;;
49942;SDS011;36011;53.362;58.948;2022-11-14T01:44:50;0.80;;;0.77;;
49942;SDS011;36011;53.362;58.948;2022-11-14T01:47:53;0.70;;;0.52;;
49942;SDS011;36011;53.362;58.948;2022-11-14T01:52:04;0.77;;;0.50;;
49942;SDS011;36011;53.362;58.948;2022-11-14T01:54:39;0.70;;;0.57;;
49942;SDS011;36011;53.362;58.948;2022-11-14T01:57:45;0.60;;;0.60;;
49942;SDS011;36011;53.362;58.948;2022-11-14T02:00:54;0.50;;;0.40;;
49942;SDS011;36011;53.362;58.948;2022-11-14T02:03:59;0.45;;;0.45;;
49942;SDS011;36011;53.362;58.948;2022-11-14T02:07:10;0.60;;;0.60;;
49942;SDS011;36011;53.362;58.948;2022-11-14T02:10:17;0.43;;;0.43;;
49942;SDS011;36011;53.362;58.948;2022-11-14T02:13:24;0.57;;;0.40;;
49942;SDS011;36011;53.362;58.948;2022-11-14T02:16:30;0.73;;;0.45;;
49942;SDS011;36011;53.362;58.948;2022-11-14T02:19:44;4.55;;;1.08;;
49942;SDS011;36011;53.362;58.948;2022-11-14T02:22:49;2.05;;;0.90;;
49942;SDS011;36011;53.362;58.948;2022-11-14T02:25:53;1.70;;;0.80;;
49942;SDS011;36011;53.362;58.948;2022-11-14T02:29:00;1.05;;;0.50;;
49942;SDS011;36011;53.362;58.948;2022-11-14T02:32:10;0.45;;;0.40;;
49942;SDS011;36011;53.362;58.948;2022-11-14T02:35:22;0.30;;;0.30;;
49942;SDS011;36011;53.362;58.948;2022-11-14T02:38:26;0.40;;;0.40;;
49942;SDS011;36011;53.362;58.948;2022-11-14T02:41:32;0.45;;;0.45;;
49942;SDS011;36011;53.362;58.948;2022-11-14T02:44:36;0.50;;;0.50;;
49942;SDS011;36011;53.362;58.948;2022-11-14T02:47:43;0.55;;;0.40;;
49942;SDS011;36011;53.362;58.948;2022-11-14T02:50:53;0.30;;;0.30;;
49942;SDS011;36011;53.362;58.948;2022-11-14T02:53:59;0.50;;;0.50;;
49942;SDS011;36011;53.362;58.948;2022-11-14T02:57:03;1.48;;;0.50;;
49942;SDS011;36011;53.362;58.948;2022-11-14T03:00:10;0.38;;;0.38;;
49942;SDS011;36011;53.362;58.948;2022-11-14T03:03:12;0.75;;;0.75;;
49942;SDS011;36011;53.362;58.948;2022-11-14T03:06:15;0.90;;;0.77;;
49942;SDS011;36011;53.362;58.948;2022-11-14T03:09:24;0.52;;;0.52;;
49942;SDS011;36011;53.362;58.948;2022-11-14T03:12:28;0.40;;;0.40;;
49942;SDS011;36011;53.362;58.948;2022-11-14T03:15:31;0.80;;;0.40;;
49942;SDS011;36011;53.362;58.948;2022-11-14T03:18:41;1.23;;;0.52;;
49942;SDS011;36011;53.362;58.948;2022-11-14T03:21:45;0.50;;;0.45;;
49942;SDS011;36011;53.362;58.948;2022-11-14T03:24:47;0.30;;;0.30;;
49942;SDS011;36011;53.362;58.948;2022-11-14T03:27:49;0.63;;;0.40;;
49942;SDS011;36011;53.362;58.948;2022-11-14T03:30:53;0.30;;;0.30;;
49942;SDS011;36011;53.362;58.948;2022-11-14T03:33:58;0.77;;;0.40;;
49942;SDS011;36011;53.362;58.948;2022-11-14T03:37:04;0.20;;;0.20;;
49942;SDS011;36011;53.362;58.948;2022-11-14T03:40:07;0.52;;;0.43;;
49942;SDS011;36011;53.362;58.948;2022-11-14T03:43:11;0.68;;;0.20;;
49942;SDS011;36011;53.362;58.948;2022-11-14T03:46:15;0.32;;;0.32;;
49942;SDS011;36011;53.362;58.948;2022-11-14T03:49:18;0.40;;;0.38;;
49942;SDS011;36011;53.362;58.948;2022-11-14T03:52:29;0.20;;;0.20;;
49942;SDS011;36011;53.362;58.948;2022-11-14T03:55:44;0.30;;;0.30;;
49942;SDS011;36011;53.362;58.948;2022-11-14T03:58:50;0.60;;;0.50;;
49942;SDS011;36011;53.362;58.948;2022-11-14T04:01:52;1.63;;;0.60;;
49942;SDS011;36011;53.362;58.948;2022-11-14T04:04:59;0.88;;;0.88;;
49942;SDS011;36011;53.362;58.948;2022-11-14T04:08:06;1.35;;;0.85;;
49942;SDS011;36011;53.362;58.948;2022-11-14T04:11:13;1.42;;;1.17;;
49942;SDS011;36011;53.362;58.948;2022-11-14T04:14:19;0.95;;;0.77;;
49942;SDS011;36011;53.362;58.948;2022-11-14T04:17:26;0.68;;;0.60;;
49942;SDS011;36011;53.362;58.948;2022-11-14T04:23:34;0.73;;;0.68;;
49942;SDS011;36011;53.362;58.948;2022-11-14T04:26:39;0.45;;;0.45;;
49942;SDS011;36011;53.362;58.948;2022-11-14T04:29:45;1.33;;;0.80;;
49942;SDS011;36011;53.362;58.948;2022-11-14T04:32:50;0.40;;;0.40;;
49942;SDS011;36011;53.362;58.948;2022-11-14T04:38:58;0.70;;;0.52;;
49942;SDS011;36011;53.362;58.948;2022-11-14T04:42:03;0.80;;;0.50;;
49942;SDS011;36011;53.362;58.948;2022-11-14T06:15:44;2.47;;;1.58;;
49942;SDS011;36011;53.362;58.948;2022-11-14T06:18:46;1.58;;;1.05;;
49942;SDS011;36011;53.362;58.948;2022-11-14T06:21:50;2.35;;;0.57;;
49942;SDS011;36011;53.362;58.948;2022-11-14T06:24:55;0.50;;;0.50;;
49942;SDS011;36011;53.362;58.948;2022-11-14T06:27:58;0.50;;;0.50;;
49942;SDS011;36011;53.362;58.948;2022-11-14T06:31:04;0.25;;;0.25;;
49942;SDS011;36011;53.362;58.948;2022-11-14T06:34:11;0.40;;;0.40;;
49942;SDS011;36011;53.362;58.948;2022-11-14T06:37:13;0.57;;;0.40;;
49942;SDS011;36011;53.362;58.948;2022-11-14T06:40:17;1.48;;;0.47;;
49942;SDS011;36011;53.362;58.948;2022-11-14T06:43:24;0.60;;;0.60;;
49942;SDS011;36011;53.362;58.948;2022-11-14T06:46:26;3.22;;;0.50;;
49942;SDS011;36011;53.362;58.948;2022-11-14T06:49:35;0.50;;;0.50;;
49942;SDS011;36011;53.362;58.948;2022-11-14T06:52:42;1.95;;;1.48;;
49942;SDS011;36011;53.362;58.948;2022-11-14T06:59:06;1.73;;;0.98;;
49942;SDS011;36011;53.362;58.948;2022-11-14T07:02:11;2.85;;;0.90;;
49942;SDS011;36011;53.362;58.948;2022-11-14T07:05:16;2.15;;;1.15;;
49942;SDS011;36011;53.362;58.948;2022-11-14T07:08:21;0.98;;;0.85;;
49942;SDS011;36011;53.362;58.948;2022-11-14T07:11:26;1.58;;;1.05;;
49942;SDS011;36011;53.362;58.948;2022-11-14T07:14:32;1.80;;;0.90;;
49942;SDS011;36011;53.362;58.948;2022-11-14T07:17:35;1.02;;;1.02;;
49942;SDS011;36011;53.362;58.948;2022-11-14T07:20:39;1.38;;;0.95;;
49942;SDS011;36011;53.362;58.948;2022-11-14T07:23:45;1.27;;;1.13;;
49942;SDS011;36011;53.362;58.948;2022-11-14T07:26:48;1.67;;;1.17;;
49942;SDS011;36011;53.362;58.948;2022-11-14T07:29:53;0.85;;;0.80;;
49942;SDS011;36011;53.362;58.948;2022-11-14T07:33:02;2.10;;;1.30;;
49942;SDS011;36011;53.362;58.948;2022-11-14T07:36:06;1.35;;;0.85;;
49942;SDS011;36011;53.362;58.948;2022-11-14T07:39:08;0.65;;;0.60;;
49942;SDS011;36011;53.362;58.948;2022-11-14T07:42:14;1.05;;;0.95;;
49942;SDS011;36011;53.362;58.948;2022-11-14T07:45:20;1.55;;;1.02;;
49942;SDS011;36011;53.362;58.948;2022-11-14T07:48:28;1.98;;;1.40;;
49942;SDS011;36011;53.362;58.948;2022-11-14T07:51:30;4.40;;;1.90;;
49942;SDS011;36011;53.362;58.948;2022-11-14T07:54:35;1.67;;;1.58;;
49942;SDS011;36011;53.362;58.948;2022-11-14T07:57:41;3.05;;;1.90;;
49942;SDS011;36011;53.362;58.948;2022-11-14T08:00:45;1.25;;;0.80;;
49942;SDS011;36011;53.362;58.948;2022-11-14T08:03:47;1.80;;;1.42;;
49942;SDS011;36011;53.362;58.948;2022-11-14T08:06:52;0.60;;;0.55;;
49942;SDS011;36011;53.362;58.948;2022-11-14T08:09:56;0.70;;;0.60;;
49942;SDS011;36011;53.362;58.948;2022-11-14T08:13:04;1.83;;;0.60;;
49942;SDS011;36011;53.362;58.948;2022-11-14T08:16:07;0.30;;;0.30;;
49942;SDS011;36011;53.362;58.948;2022-11-14T08:19:19;0.20;;;0.20;;
49942;SDS011;36011;53.362;58.948;2022-11-14T08:22:23;2.65;;;0.80;;
49942;SDS011;36011;53.362;58.948;2022-11-14T08:25:33;0.43;;;0.40;;
49942;SDS011;36011;53.362;58.948;2022-11-14T08:28:39;1.00;;;0.60;;
49942;SDS011;36011;53.362;58.948;2022-11-14T08:31:40;0.75;;;0.60;;
49942;SDS011;36011;53.362;58.948;2022-11-14T08:34:50;0.50;;;0.43;;
49942;SDS011;36011;53.362;58.948;2022-11-14T08:37:55;0.50;;;0.50;;
49942;SDS011;36011;53.362;58.948;2022-11-14T08:41:03;0.95;;;0.82;;
49942;SDS011;36011;53.362;58.948;2022-11-14T08:44:07;0.60;;;0.60;;
49942;SDS011;36011;53.362;58.948;2022-11-14T08:47:08;1.77;;;1.00;;
49942;SDS011;36011;53.362;58.948;2022-11-14T08:50:12;1.38;;;1.27;;
49942;SDS011;36011;53.362;58.948;2022-11-14T08:53:14;0.60;;;0.60;;
49942;SDS011;36011;53.362;58.948;2022-11-14T08:56:21;1.00;;;0.85;;
49942;SDS011;36011;53.362;58.948;2022-11-14T08:59:26;0.73;;;0.60;;
49942;SDS011;36011;53.362;58.948;2022-11-14T09:02:30;0.70;;;0.70;;
49942;SDS011;36011;53.362;58.948;2022-11-14T09:05:39;0.60;;;0.60;;
49942;SDS011;36011;53.362;58.948;2022-11-14T09:08:41;1.42;;;0.60;;
49942;SDS011;36011;53.362;58.948;2022-11-14T09:11:43;1.92;;;0.90;;
49942;SDS011;36011;53.362;58.948;2022-11-14T09:14:51;0.68;;;0.52;;
49942;SDS011;36011;53.362;58.948;2022-11-14T09:17:55;1.08;;;0.95;;
49942;SDS011;36011;53.362;58.948;2022-11-14T09:21:01;1.50;;;0.80;;
49942;SDS011;36011;53.362;58.948;2022-11-14T09:24:05;0.65;;;0.50;;
49942;SDS011;36011;53.362;58.948;2022-11-14T09:27:06;0.90;;;0.80;;
49942;SDS011;36011;53.362;58.948;2022-11-14T09:30:11;2.20;;;0.90;;
49942;SDS011;36011;53.362;58.948;2022-11-14T09:33:13;1.65;;;1.38;;
49942;SDS011;36011;53.362;58.948;2022-11-14T09:36:14;1.75;;;1.20;;
49942;SDS011;36011;53.362;58.948;2022-11-14T09:45:47;0.63;;;0.60;;
49942;SDS011;36011;53.362;58.948;2022-11-14T09:48:53;0.60;;;0.60;;
49942;SDS011;36011;53.362;58.948;2022-11-14T09:52:21;0.60;;;0.60;;
49942;SDS011;36011;53.362;58.948;2022-11-14T09:55:34;0.70;;;0.70;;
49942;SDS011;36011;53.362;58.948;2022-11-14T09:58:39;0.60;;;0.60;;
49942;SDS011;36011;53.362;58.948;2022-11-14T10:02:00;0.70;;;0.60;;
49942;SDS011;36011;53.362;58.948;2022-11-14T10:25:23;1.85;;;0.73;;
49942;SDS011;36011;53.362;58.948;2022-11-14T10:41:33;0.85;;;0.65;;
49942;SDS011;36011;53.362;58.948;2022-11-14T10:44:46;0.65;;;0.50;;
49942;SDS011;36011;53.362;58.948;2022-11-14T10:47:57;0.70;;;0.70;;
49942;SDS011;36011;53.362;58.948;2022-11-14T10:54:35;0.95;;;0.70;;
49942;SDS011;36011;53.362;58.948;2022-11-14T10:57:45;0.63;;;0.63;;
49942;SDS011;36011;53.362;58.948;2022-11-14T11:00:49;1.02;;;0.82;;
49942;SDS011;36011;53.362;58.948;2022-11-14T11:03:56;1.00;;;0.88;;
49942;SDS011;36011;53.362;58.948;2022-11-14T11:10:18;0.60;;;0.50;;
49942;SDS011;36011;53.362;58.948;2022-11-14T11:13:47;0.77;;;0.70;;
49942;SDS011;36011;53.362;58.948;2022-11-14T11:20:29;1.20;;;0.68;;
49942;SDS011;36011;53.362;58.948;2022-11-14T11:23:50;1.05;;;0.77;;
49942;SDS011;36011;53.362;58.948;2022-11-14T11:27:29;0.47;;;0.40;;
49942;SDS011;36011;53.362;58.948;2022-11-14T11:30:34;1.73;;;0.70;;
49942;SDS011;36011;53.362;58.948;2022-11-14T11:34:01;1.25;;;0.50;;
49942;SDS011;36011;53.362;58.948;2022-11-14T11:37:17;0.50;;;0.50;;
49942;SDS011;36011;53.362;58.948;2022-11-14T11:40:53;0.63;;;0.63;;
49942;SDS011;36011;53.362;58.948;2022-11-14T11:44:18;1.25;;;0.75;;
49942;SDS011;36011;53.362;58.948;2022-11-14T11:47:32;1.10;;;0.55;;
49942;SDS011;36011;53.362;58.948;2022-11-14T11:50:46;0.70;;;0.70;;
49942;SDS011;36011;53.362;58.948;2022-11-14T11:57:30;1.13;;;0.63;;
49942;SDS011;36011;53.362;58.948;2022-11-14T12:00:44;1.23;;;0.93;;
49942;SDS011;36011;53.362;58.948;2022-11-14T12:03:51;0.88;;;0.82;;
49942;SDS011;36011;53.362;58.948;2022-11-14T12:07:08;1.33;;;0.95;;
49942;SDS011;36011;53.362;58.948;2022-11-14T12:10:34;1.00;;;0.90;;
49942;SDS011;36011;53.362;58.948;2022-11-14T12:27:24;0.80;;;0.80;;
49942;SDS011;36011;53.362;58.948;2022-11-14T12:30:40;4.90;;;1.00;;
49942;SDS011;36011;53.362;58.948;2022-11-14T12:34:03;1.85;;;0.85;;
49942;SDS011;36011;53.362;58.948;2022-11-14T12:37:21;1.77;;;1.00;;
49942;SDS011;36011;53.362;58.948;2022-11-14T12:40:37;1.63;;;1.35;;
49942;SDS011;36011;53.362;58.948;2022-11-14T12:43:49;2.08;;;1.10;;
49942;SDS011;36011;53.362;58.948;2022-11-14T12:50:27;1.42;;;0.90;;
49942;SDS011;36011;53.362;58.948;2022-11-14T12:53:42;0.75;;;0.50;;
49942;SDS011;36011;53.362;58.948;2022-11-14T12:56:51;0.68;;;0.40;;
49942;SDS011;36011;53.362;58.948;2022-11-14T13:00:03;0.40;;;0.40;;
49942;SDS011;36011;53.362;58.948;2022-11-14T13:16:30;0.47;;;0.47;;
49942;SDS011;36011;53.362;58.948;2022-11-14T13:19:51;1.20;;;0.50;;
49942;SDS011;36011;53.362;58.948;2022-11-14T13:26:35;0.68;;;0.60;;
49942;SDS011;36011;53.362;58.948;2022-11-14T13:32:53;1.35;;;0.90;;
49942;SDS011;36011;53.362;58.948;2022-11-14T13:36:01;4.22;;;0.98;;
49942;SDS011;36011;53.362;58.948;2022-11-14T13:52:49;0.55;;;0.50;;
49942;SDS011;36011;53.362;58.948;2022-11-14T14:16:45;1.17;;;0.70;;
49942;SDS011;36011;53.362;58.948;2022-11-14T14:30:24;0.70;;;0.50;;
49942;SDS011;36011;53.362;58.948;2022-11-14T14:33:37;2.17;;;0.52;;
49942;SDS011;36011;53.362;58.948;2022-11-14T14:43:31;0.60;;;0.25;;
49942;SDS011;36011;53.362;58.948;2022-11-14T14:46:33;0.45;;;0.45;;
49942;SDS011;36011;53.362;58.948;2022-11-14T14:49:40;0.77;;;0.50;;
49942;SDS011;36011;53.362;58.948;2022-11-14T14:52:45;0.32;;;0.30;;
49942;SDS011;36011;53.362;58.948;2022-11-14T14:55:59;1.95;;;0.50;;
49942;SDS011;36011;53.362;58.948;2022-11-14T14:59:17;0.70;;;0.50;;
49942;SDS011;36011;53.362;58.948;2022-11-14T15:02:23;0.40;;;0.40;;
49942;SDS011;36011;53.362;58.948;2022-11-14T15:05:28;0.43;;;0.43;;
49942;SDS011;36011;53.362;58.948;2022-11-14T15:08:37;0.40;;;0.40;;
49942;SDS011;36011;53.362;58.948;2022-11-14T15:11:48;0.55;;;0.50;;
49942;SDS011;36011;53.362;58.948;2022-11-14T15:14:54;0.50;;;0.50;;
49942;SDS011;36011;53.362;58.948;2022-11-14T15:18:07;0.70;;;0.43;;
49942;SDS011;36011;53.362;58.948;2022-11-14T15:21:24;0.55;;;0.50;;
49942;SDS011;36011;53.362;58.948;2022-11-14T15:24:29;0.98;;;0.40;;
49942;SDS011;36011;53.362;58.948;2022-11-14T15:27:49;1.10;;;0.70;;
49942;SDS011;36011;53.362;58.948;2022-11-14T15:34:06;2.08;;;0.70;;
49942;SDS011;36011;53.362;58.948;2022-11-14T15:37:46;0.70;;;0.60;;
49942;SDS011;36011;53.362;58.948;2022-11-14T15:44:28;1.05;;;0.85;;
49942;SDS011;36011;53.362;58.948;2022-11-14T15:47:37;0.65;;;0.65;;
49942;SDS011;36011;53.362;58.948;2022-11-14T15:50:39;1.10;;;0.68;;
49942;SDS011;36011;53.362;58.948;2022-11-14T15:53:44;0.50;;;0.50;;
49942;SDS011;36011;53.362;58.948;2022-11-14T15:56:48;1.45;;;0.90;;
49942;SDS011;36011;53.362;58.948;2022-11-14T15:59:55;0.50;;;0.50;;
49942;SDS011;36011;53.362;58.948;2022-11-14T16:02:56;0.55;;;0.55;;
49942;SDS011;36011;53.362;58.948;2022-11-14T16:06:01;0.60;;;0.50;;
49942;SDS011;36011;53.362;58.948;2022-11-14T16:09:02;0.82;;;0.70;;
49942;SDS011;36011;53.362;58.948;2022-11-14T16:12:04;0.50;;;0.50;;
49942;SDS011;36011;53.362;58.948;2022-11-14T16:18:11;0.80;;;0.55;;
49942;SDS011;36011;53.362;58.948;2022-11-14T16:21:15;0.75;;;0.70;;
49942;SDS011;36011;53.362;58.948;2022-11-14T16:24:19;0.82;;;0.50;;
49942;SDS011;36011;53.362;58.948;2022-11-14T16:27:26;0.82;;;0.63;;
49942;SDS011;36011;53.362;58.948;2022-11-14T16:30:30;0.55;;;0.52;;
49942;SDS011;36011;53.362;58.948;2022-11-14T16:33:37;0.50;;;0.50;;
49942;SDS011;36011;53.362;58.948;2022-11-14T16:36:44;0.40;;;0.40;;
49942;SDS011;36011;53.362;58.948;2022-11-14T16:39:49;0.45;;;0.40;;
49942;SDS011;36011;53.362;58.948;2022-11-14T16:42:54;0.73;;;0.60;;
49942;SDS011;36011;53.362;58.948;2022-11-14T16:46:01;0.75;;;0.60;;
49942;SDS011;36011;53.362;58.948;2022-11-14T16:49:11;1.30;;;0.73;;
49942;SDS011;36011;53.362;58.948;2022-11-14T16:52:21;1.40;;;0.80;;
49942;SDS011;36011;53.362;58.948;2022-11-14T16:55:24;1.10;;;0.85;;
49942;SDS011;36011;53.362;58.948;2022-11-14T16:58:28;2.00;;;1.10;;
49942;SDS011;36011;53.362;58.948;2022-11-14T17:01:35;1.30;;;1.05;;
49942;SDS011;36011;53.362;58.948;2022-11-14T17:04:36;1.45;;;1.00;;
49942;SDS011;36011;53.362;58.948;2022-11-14T17:07:37;0.70;;;0.65;;
49942;SDS011;36011;53.362;58.948;2022-11-14T17:10:47;0.50;;;0.45;;
49942;SDS011;36011;53.362;58.948;2022-11-14T17:16:52;1.00;;;0.63;;
49942;SDS011;36011;53.362;58.948;2022-11-14T17:19:59;0.93;;;0.73;;
49942;SDS011;36011;53.362;58.948;2022-11-14T17:23:06;1.00;;;0.70;;
49942;SDS011;36011;53.362;58.948;2022-11-14T17:26:08;0.75;;;0.55;;
49942;SDS011;36011;53.362;58.948;2022-11-14T17:29:14;1.33;;;0.65;;
49942;SDS011;36011;53.362;58.948;2022-11-14T17:32:20;1.15;;;0.80;;
49942;SDS011;36011;53.362;58.948;2022-11-14T17:35:22;1.55;;;1.00;;
49942;SDS011;36011;53.362;58.948;2022-11-14T17:38:25;1.55;;;1.00;;
49942;SDS011;36011;53.362;58.948;2022-11-14T17:41:28;0.82;;;0.70;;
49942;SDS011;36011;53.362;58.948;2022-11-14T17:44:38;1.23;;;0.57;;
49942;SDS011;36011;53.362;58.948;2022-11-14T17:47:45;1.35;;;0.65;;
49942;SDS011;36011;53.362;58.948;2022-11-14T17:50:51;0.70;;;0.70;;
49942;SDS011;36011;53.362;58.948;2022-11-14T17:53:54;1.42;;;0.70;;
49942;SDS011;36011;53.362;58.948;2022-11-14T17:56:56;1.38;;;0.55;;
49942;SDS011;36011;53.362;58.948;2022-11-14T17:59:58;1.23;;;0.70;;
49942;SDS011;36011;53.362;58.948;2022-11-14T18:03:08;1.65;;;0.50;;
49942;SDS011;36011;53.362;58.948;2022-11-14T18:06:11;0.65;;;0.57;;
49942;SDS011;36011;53.362;58.948;2022-11-14T18:09:13;0.63;;;0.30;;
49942;SDS011;36011;53.362;58.948;2022-11-14T18:12:17;0.40;;;0.40;;
49942;SDS011;36011;53.362;58.948;2022-11-14T18:15:23;1.58;;;0.80;;
49942;SDS011;36011;53.362;58.948;2022-11-14T18:18:28;1.08;;;0.52;;
49942;SDS011;36011;53.362;58.948;2022-11-14T18:21:32;0.88;;;0.57;;
49942;SDS011;36011;53.362;58.948;2022-11-14T18:24:34;1.05;;;0.32;;
49942;SDS011;36011;53.362;58.948;2022-11-14T18:27:43;1.23;;;0.50;;
49942;SDS011;36011;53.362;58.948;2022-11-14T18:30:51;0.82;;;0.52;;
49942;SDS011;36011;53.362;58.948;2022-11-14T18:33:54;0.85;;;0.60;;
49942;SDS011;36011;53.362;58.948;2022-11-14T18:37:01;0.57;;;0.40;;
49942;SDS011;36011;53.362;58.948;2022-11-14T18:40:06;0.60;;;0.60;;
49942;SDS011;36011;53.362;58.948;2022-11-14T18:43:10;1.20;;;0.65;;
49942;SDS011;36011;53.362;58.948;2022-11-14T18:46:18;0.68;;;0.50;;
49942;SDS011;36011;53.362;58.948;2022-11-14T18:49:23;0.93;;;0.45;;
49942;SDS011;36011;53.362;58.948;2022-11-14T18:52:29;0.85;;;0.65;;
49942;SDS011;36011;53.362;58.948;2022-11-14T18:55:37;0.50;;;0.50;;
49942;SDS011;36011;53.362;58.948;2022-11-14T18:58:45;0.70;;;0.50;;
49942;SDS011;36011;53.362;58.948;2022-11-14T19:01:52;1.00;;;0.80;;
49942;SDS011;36011;53.362;58.948;2022-11-14T19:04:59;0.82;;;0.60;;
49942;SDS011;36011;53.362;58.948;2022-11-14T19:08:02;1.30;;;0.73;;
49942;SDS011;36011;53.362;58.948;2022-11-14T19:11:06;0.55;;;0.55;;
49942;SDS011;36011;53.362;58.948;2022-11-14T19:14:11;1.23;;;0.60;;
49942;SDS011;36011;53.362;58.948;2022-11-14T19:17:17;0.75;;;0.52;;
49942;SDS011;36011;53.362;58.948;2022-11-14T19:20:22;0.40;;;0.40;;
49942;SDS011;36011;53.362;58.948;2022-11-14T19:23:23;0.77;;;0.47;;
49942;SDS011;36011;53.362;58.948;2022-11-14T19:26:30;0.93;;;0.77;;
49942;SDS011;36011;53.362;58.948;2022-11-14T19:32:35;1.20;;;0.70;;
49942;SDS011;36011;53.362;58.948;2022-11-14T19:35:38;0.60;;;0.60;;
49942;SDS011;36011;53.362;58.948;2022-11-14T19:38:42;0.40;;;0.40;;
49942;SDS011;36011;53.362;58.948;2022-11-14T19:41:43;0.40;;;0.40;;
49942;SDS011;36011;53.362;58.948;2022-11-14T19:44:45;0.50;;;0.50;;
49942;SDS011;36011;53.362;58.948;2022-11-14T19:47:49;0.40;;;0.40;;
49942;SDS011;36011;53.362;58.948;2022-11-14T19:51:06;0.43;;;0.40;;
49942;SDS011;36011;53.362;58.948;2022-11-14T19:54:12;0.40;;;0.40;;
49942;SDS011;36011;53.362;58.948;2022-11-14T19:57:13;0.60;;;0.50;;
49942;SDS011;36011;53.362;58.948;2022-11-14T20:00:14;0.35;;;0.35;;
49942;SDS011;36011;53.362;58.948;2022-11-14T20:03:19;0.60;;;0.55;;
49942;SDS011;36011;53.362;58.948;2022-11-14T20:06:23;0.40;;;0.40;;
49942;SDS011;36011;53.362;58.948;2022-11-14T20:09:28;0.95;;;0.70;;
49942;SDS011;36011;53.362;58.948;2022-11-14T20:12:35;2.42;;;0.88;;
49942;SDS011;36011;53.362;58.948;2022-11-14T20:15:39;3.95;;;1.50;;
49942;SDS011;36011;53.362;58.948;2022-11-14T20:18:43;3.70;;;1.50;;
49942;SDS011;36011;53.362;58.948;2022-11-14T20:21:54;3.15;;;1.25;;
49942;SDS011;36011;53.362;58.948;2022-11-14T20:24:59;3.42;;;1.38;;
49942;SDS011;36011;53.362;58.948;2022-11-14T20:28:04;0.85;;;0.80;;
49942;SDS011;36011;53.362;58.948;2022-11-14T20:31:11;1.98;;;0.88;;
49942;SDS011;36011;53.362;58.948;2022-11-14T20:34:19;1.23;;;0.70;;
49942;SDS011;36011;53.362;58.948;2022-11-14T20:37:26;2.22;;;0.82;;
49942;SDS011;36011;53.362;58.948;2022-11-14T20:40:29;1.67;;;0.93;;
49942;SDS011;36011;53.362;58.948;2022-11-14T20:43:36;3.42;;;0.85;;
49942;SDS011;36011;53.362;58.948;2022-11-14T20:46:40;1.38;;;0.80;;
49942;SDS011;36011;53.362;58.948;2022-11-14T20:49:45;1.45;;;0.80;;
49942;SDS011;36011;53.362;58.948;2022-11-14T20:52:51;0.60;;;0.60;;
49942;SDS011;36011;53.362;58.948;2022-11-14T20:55:54;1.30;;;0.77;;
49942;SDS011;36011;53.362;58.948;2022-11-14T20:58:58;0.98;;;0.60;;
49942;SDS011;36011;53.362;58.948;2022-11-14T21:02:04;0.82;;;0.43;;
49942;SDS011;36011;53.362;58.948;2022-11-14T21:05:09;0.80;;;0.60;;
49942;SDS011;36011;53.362;58.948;2022-11-14T21:08:16;1.15;;;0.73;;
49942;SDS011;36011;53.362;58.948;2022-11-14T21:11:22;0.70;;;0.60;;
49942;SDS011;36011;53.362;58.948;2022-11-14T21:14:25;0.93;;;0.47;;
49942;SDS011;36011;53.362;58.948;2022-11-14T21:17:32;0.80;;;0.55;;
49942;SDS011;36011;53.362;58.948;2022-11-14T21:20:33;0.98;;;0.60;;
49942;SDS011;36011;53.362;58.948;2022-11-14T21:23:37;0.65;;;0.60;;
49942;SDS011;36011;53.362;58.948;2022-11-14T21:26:40;0.85;;;0.60;;
49942;SDS011;36011;53.362;58.948;2022-11-14T21:29:42;0.65;;;0.50;;
49942;SDS011;36011;53.362;58.948;2022-11-14T21:32:51;0.63;;;0.50;;
49942;SDS011;36011;53.362;58.948;2022-11-14T21:35:54;0.82;;;0.70;;
49942;SDS011;36011;53.362;58.948;2022-11-14T21:38:59;0.45;;;0.40;;
49942;SDS011;36011;53.362;58.948;2022-11-14T21:42:03;0.50;;;0.40;;
49942;SDS011;36011;53.362;58.948;2022-11-14T21:45:07;0.40;;;0.40;;
49942;SDS011;36011;53.362;58.948;2022-11-14T21:48:11;0.50;;;0.50;;
49942;SDS011;36011;53.362;58.948;2022-11-14T21:51:18;0.95;;;0.73;;
49942;SDS011;36011;53.362;58.948;2022-11-14T21:54:24;0.80;;;0.70;;
49942;SDS011;36011;53.362;58.948;2022-11-14T21:57:27;0.70;;;0.60;;
49942;SDS011;36011;53.362;58.948;2022-11-14T22:00:29;0.50;;;0.50;;
49942;SDS011;36011;53.362;58.948;2022-11-14T22:03:33;0.50;;;0.43;;
49942;SDS011;36011;53.362;58.948;2022-11-14T22:06:52;0.55;;;0.55;;
49942;SDS011;36011;53.362;58.948;2022-11-14T22:09:54;1.08;;;0.75;;
49942;SDS011;36011;53.362;58.948;2022-11-14T22:12:56;0.50;;;0.50;;
49942;SDS011;36011;53.362;58.948;2022-11-14T22:16:02;0.68;;;0.63;;
49942;SDS011;36011;53.362;58.948;2022-11-14T22:19:05;0.88;;;0.80;;
49942;SDS011;36011;53.362;58.948;2022-11-14T22:22:06;0.88;;;0.57;;
49942;SDS011;36011;53.362;58.948;2022-11-14T22:25:07;1.70;;;0.80;;
49942;SDS011;36011;53.362;58.948;2022-11-14T22:31:13;0.90;;;0.60;;
49942;SDS011;36011;53.362;58.948;2022-11-14T22:34:17;0.50;;;0.50;;
49942;SDS011;36011;53.362;58.948;2022-11-14T22:37:20;0.93;;;0.70;;
49942;SDS011;36011;53.362;58.948;2022-11-14T22:40:26;0.77;;;0.70;;
49942;SDS011;36011;53.362;58.948;2022-11-14T22:43:28;0.68;;;0.52;;
49942;SDS011;36011;53.362;58.948;2022-11-14T22:46:31;1.25;;;0.70;;
49942;SDS011;36011;53.362;58.948;2022-11-14T22:49:35;1.27;;;0.70;;